Main page
METAR-TAF:

METAR-TAF

Airports :

Naval Station Rota

Rota, Spain

latitude: 36-39N, longitude: 006-21W, elevation: 26 m

Current weather observation

The report was made 42 minutes ago, at 03:00 UTC
Wind 6 kt from the East, varying between Northeast and East/Southeast
Temperature 12°C
Humidity 82%
Pressure 1023 hPa
Visibility 10 km or more
no clouds below 1500 m and no cumulonimbus

METAR: LERT 270300Z 08006KT 050V110 CAVOK 12/09 Q1023 NOSIG

Time: 04:42 (03:42 UTC)

Forecast

The report was made 1 hour and 42 minutes ago, at 02:00 UTC
Forecast valid from 27 at 03 UTC to 28 at 03 UTC
Wind 7 kt from the East/Northeast
Visibility 10 km or more
Few clouds at a height of 3000 ft
Becoming
from 27 at 11 UTC to 27 at 13 UTC
Wind 10 kt from the East/Southeast
Becoming
from 27 at 23 UTC to 28 at 02 UTC
Wind 7 kt from the East/Northeast

TAF: LERT 270200Z 2703/2803 06007KT 9999 FEW030 TX18/2714Z TN10/2707Z BECMG 2711/2713 12010KT BECMG 2723/2802 06007KT

Weather observations and forecasts of more than 4000 airports (METAR and TAF reports).

The available stations are represented by yellow and red dots on the map.

Hover mouse over dot to see the name of the station.

Then click to see weather observations and forecasts.

To change the map : click on the green buttons with a black cross to zoom in, on the green button with a dash to zoom out, or on the green arrows for adjacent maps.


METAR-TAF: